createdAt,value
2022-09-21T00:01:46.635Z,70.63
2022-09-21T00:04:20.512Z,70.70
2022-09-21T00:06:53.816Z,70.78
2022-09-21T00:09:27.433Z,70.66
2022-09-21T00:12:01.518Z,70.80
2022-09-21T00:14:38.706Z,70.75
2022-09-21T00:17:11.877Z,70.73
2022-09-21T00:19:45.371Z,70.66
2022-09-21T00:22:18.755Z,70.76
2022-09-21T00:24:52.654Z,70.81
2022-09-21T00:27:30.449Z,70.83
2022-09-21T00:30:06.584Z,70.85
2022-09-21T00:32:41.064Z,71.08
2022-09-21T00:35:15.250Z,71.00
2022-09-21T00:37:52.071Z,71.11
2022-09-21T00:40:25.514Z,71.09
2022-09-21T00:43:18.691Z,71.20
2022-09-21T00:46:00.536Z,71.34
2022-09-21T00:48:35.500Z,71.09
2022-09-21T00:51:11.008Z,71.27
2022-09-21T00:53:44.813Z,71.40
2022-09-21T00:56:20.725Z,71.42
2022-09-21T00:58:59.603Z,71.36
2022-09-21T01:01:33.685Z,71.41
2022-09-21T01:04:07.538Z,71.42
2022-09-21T01:06:42.532Z,71.33
2022-09-21T01:09:16.720Z,71.45
2022-09-21T01:12:04.929Z,71.47
2022-09-21T01:15:02.537Z,71.47
2022-09-21T01:17:44.756Z,71.55
2022-09-21T01:21:02.070Z,71.56
2022-09-21T01:24:12.090Z,71.52
2022-09-21T01:27:28.639Z,71.58
2022-09-21T01:30:05.355Z,71.41
2022-09-21T01:32:44.196Z,71.55
2022-09-21T01:35:22.039Z,71.55
2022-09-21T01:38:03.911Z,71.49
2022-09-21T01:40:39.989Z,71.60
2022-09-21T01:43:20.922Z,71.64
2022-09-21T01:46:02.367Z,71.84
2022-09-21T01:48:41.230Z,71.75
2022-09-21T01:51:15.476Z,71.74
2022-09-21T01:53:54.047Z,71.79
2022-09-21T01:56:34.852Z,71.85
2022-09-21T01:59:12.656Z,72.01
2022-09-21T02:01:51.997Z,72.02
2022-09-21T02:04:25.511Z,71.95
2022-09-21T02:06:58.890Z,71.88
2022-09-21T02:09:33.111Z,71.82
2022-09-21T02:12:07.201Z,71.90
2022-09-21T02:14:41.780Z,71.98
2022-09-21T02:17:29.837Z,71.91
2022-09-21T02:20:11.995Z,71.97
2022-09-21T02:22:59.992Z,71.91
2022-09-21T02:25:41.864Z,71.94
2022-09-21T02:28:29.366Z,71.92
2022-09-21T02:31:14.151Z,72.01
2022-09-21T02:33:59.177Z,72.04
2022-09-21T02:36:39.599Z,72.08
2022-09-21T02:39:17.615Z,72.01
2022-09-21T02:42:03.320Z,72.00
2022-09-21T02:44:40.859Z,71.90
2022-09-21T02:47:20.847Z,72.01
2022-09-21T02:50:00.397Z,72.04
2022-09-21T02:52:36.072Z,72.17
2022-09-21T02:55:10.962Z,72.06
2022-09-21T02:57:44.761Z,72.04
2022-09-21T03:00:19.254Z,72.23
2022-09-21T03:02:55.363Z,72.14
2022-09-21T03:05:30.272Z,72.26
2022-09-21T03:08:03.826Z,72.36
2022-09-21T03:10:40.210Z,72.36
2022-09-21T03:13:14.162Z,72.28
2022-09-21T03:15:48.507Z,72.45
2022-09-21T03:18:22.170Z,72.37
2022-09-21T03:20:55.920Z,72.26
2022-09-21T03:23:29.440Z,72.34
2022-09-21T03:26:02.781Z,72.41
2022-09-21T03:28:36.550Z,72.44
2022-09-21T03:31:10.063Z,72.57
2022-09-21T03:33:43.417Z,72.66
2022-09-21T03:36:17.125Z,72.65
2022-09-21T03:38:50.648Z,72.63
2022-09-21T03:41:24.022Z,72.56
2022-09-21T03:43:57.824Z,72.64
2022-09-21T03:46:31.501Z,72.71
2022-09-21T03:49:05.336Z,72.71
2022-09-21T03:51:39.811Z,72.69
2022-09-21T03:54:13.287Z,72.62
2022-09-21T03:56:46.729Z,72.58
2022-09-21T03:59:20.899Z,72.72
2022-09-21T04:01:54.610Z,72.53
2022-09-21T04:04:28.046Z,72.56
2022-09-21T04:07:01.633Z,72.57
2022-09-21T04:09:34.837Z,72.67
2022-09-21T04:12:08.344Z,72.71
2022-09-21T04:14:41.982Z,72.74
2022-09-21T04:17:15.618Z,72.74
2022-09-21T04:19:49.507Z,72.87
2022-09-21T04:22:25.303Z,72.85
2022-09-21T04:24:58.600Z,72.85
2022-09-21T04:27:32.039Z,72.95
2022-09-21T04:30:06.486Z,72.97
2022-09-21T04:32:40.071Z,72.92
2022-09-21T04:35:13.953Z,72.96
2022-09-21T04:37:48.080Z,72.93
2022-09-21T04:40:23.615Z,72.91
2022-09-21T04:42:57.312Z,73.02
2022-09-21T04:45:30.576Z,72.98
2022-09-21T04:48:03.994Z,72.98
2022-09-21T04:50:39.684Z,73.06
2022-09-21T04:53:15.094Z,73.12
2022-09-21T04:55:48.865Z,73.03
2022-09-21T04:58:24.455Z,73.02
2022-09-21T05:00:58.475Z,72.96
2022-09-21T05:03:32.756Z,72.92
2022-09-21T05:06:06.493Z,73.17
2022-09-21T05:08:57.455Z,73.16
2022-09-21T05:11:30.908Z,73.17
2022-09-21T05:14:04.378Z,73.15
2022-09-21T05:16:38.416Z,73.15
2022-09-21T05:19:12.286Z,73.11
2022-09-21T05:21:46.231Z,73.07
2022-09-21T05:24:20.241Z,73.07
2022-09-21T05:26:54.271Z,73.20
2022-09-21T05:29:28.557Z,73.09
2022-09-21T05:32:10.355Z,73.02
2022-09-21T05:34:53.798Z,73.05
2022-09-21T05:37:50.044Z,72.82
2022-09-21T05:40:24.747Z,72.97
2022-09-21T05:42:59.067Z,73.07
2022-09-21T05:45:33.688Z,73.08
2022-09-21T05:48:18.556Z,73.12
2022-09-21T05:51:01.005Z,73.16
2022-09-21T05:53:47.029Z,73.20
2022-09-21T05:56:39.606Z,72.95
2022-09-21T05:59:32.887Z,72.93
2022-09-21T06:02:26.607Z,72.88
2022-09-21T06:05:03.277Z,72.75
2022-09-21T06:07:37.403Z,72.62
2022-09-21T06:10:13.938Z,72.48
2022-09-21T06:12:47.689Z,72.48
2022-09-21T06:15:24.570Z,72.49
2022-09-21T06:17:59.362Z,72.35
2022-09-21T06:20:33.390Z,72.25
2022-09-21T06:23:08.402Z,72.16
2022-09-21T06:25:42.271Z,72.16
2022-09-21T06:28:16.093Z,72.20
2022-09-21T06:30:54.327Z,72.47
2022-09-21T06:33:27.936Z,72.10
2022-09-21T06:36:02.137Z,72.27
2022-09-21T06:38:37.198Z,72.42
2022-09-21T06:41:10.390Z,72.27
2022-09-21T06:43:44.016Z,71.95
2022-09-21T06:46:18.005Z,72.25
2022-09-21T06:48:52.257Z,72.29
2022-09-21T06:51:25.754Z,71.41
2022-09-21T06:54:02.648Z,70.79
2022-09-21T06:56:35.988Z,70.81
2022-09-21T06:59:09.812Z,71.05
2022-09-21T07:01:43.385Z,70.67
2022-09-21T07:04:17.922Z,70.05
2022-09-21T07:06:53.324Z,70.36
2022-09-21T07:12:20.564Z,70.00
2022-09-21T07:14:54.281Z,69.52
2022-09-21T07:17:27.743Z,69.55
2022-09-21T07:20:01.112Z,68.89
2022-09-21T07:22:34.967Z,68.22
2022-09-21T07:25:10.622Z,67.89
2022-09-21T07:27:55.559Z,67.89
2022-09-21T07:30:29.726Z,68.25
2022-09-21T07:33:03.318Z,67.84
2022-09-21T07:35:37.422Z,67.67
2022-09-21T07:38:14.519Z,67.54
2022-09-21T07:40:48.148Z,69.77
2022-09-21T07:43:21.732Z,71.55
2022-09-21T07:45:58.438Z,70.35
2022-09-21T07:48:32.479Z,66.81
2022-09-21T07:51:07.505Z,60.03
2022-09-21T07:53:45.931Z,56.61
2022-09-21T07:56:20.489Z,54.73
2022-09-21T07:59:08.957Z,54.33
2022-09-21T08:01:43.784Z,54.52
2022-09-21T08:04:17.273Z,54.57
2022-09-21T08:06:50.819Z,54.84
2022-09-21T08:09:26.900Z,55.78
2022-09-21T08:12:11.536Z,56.57
2022-09-21T08:14:44.975Z,56.03
2022-09-21T08:17:21.527Z,55.69
2022-09-21T08:19:55.661Z,55.47
2022-09-21T08:22:32.090Z,55.90
2022-09-21T08:25:06.251Z,56.15
2022-09-21T08:27:40.901Z,55.96
2022-09-21T08:30:15.460Z,55.75
2022-09-21T08:32:51.856Z,55.76
2022-09-21T08:35:25.763Z,55.61
2022-09-21T08:38:19.391Z,56.13
2022-09-21T08:40:53.733Z,56.41
2022-09-21T08:43:37.723Z,56.71
2022-09-21T08:46:15.611Z,56.75
2022-09-21T08:48:52.720Z,56.74
2022-09-21T08:51:30.070Z,56.65
2022-09-21T08:54:17.123Z,56.53
2022-09-21T08:57:04.914Z,56.60
2022-09-21T08:59:43.616Z,56.84
2022-09-21T09:02:40.492Z,56.92
2022-09-21T09:05:35.094Z,57.34
2022-09-21T09:08:58.016Z,57.24
2022-09-21T09:11:56.745Z,57.36
2022-09-21T09:15:21.976Z,57.30
2022-09-21T09:18:02.288Z,57.25
2022-09-21T09:20:51.370Z,57.42
2022-09-21T09:23:43.487Z,57.84
2022-09-21T09:26:24.051Z,58.05
2022-09-21T09:29:00.932Z,58.17
2022-09-21T09:31:36.369Z,58.07
2022-09-21T09:34:17.861Z,58.01
2022-09-21T09:36:59.619Z,58.07
2022-09-21T09:39:45.629Z,58.09
2022-09-21T09:42:40.133Z,58.25
2022-09-21T09:45:33.795Z,58.93
2022-09-21T09:48:18.970Z,59.15
2022-09-21T09:50:56.171Z,57.88
2022-09-21T09:53:30.569Z,56.84
2022-09-21T09:56:04.225Z,56.52
2022-09-21T09:58:46.712Z,56.38
2022-09-21T10:01:43.720Z,56.35
2022-09-21T10:04:21.216Z,56.50
2022-09-21T10:06:55.359Z,56.83
2022-09-21T10:09:31.350Z,56.75
2022-09-21T10:12:21.047Z,56.68
2022-09-21T10:15:01.957Z,56.99
2022-09-21T10:18:06.405Z,57.01
2022-09-21T10:20:39.917Z,57.10
2022-09-21T10:23:16.124Z,57.08
2022-09-21T10:25:58.813Z,56.65
2022-09-21T10:28:33.131Z,56.56
2022-09-21T10:31:22.676Z,56.18
2022-09-21T10:34:08.088Z,56.12
2022-09-21T10:36:43.421Z,56.08
2022-09-21T10:39:25.287Z,55.34
2022-09-21T10:42:03.462Z,55.53
2022-09-21T10:44:43.608Z,55.54
2022-09-21T10:47:27.272Z,55.70
2022-09-21T10:50:02.983Z,55.75
2022-09-21T10:52:40.409Z,55.80
2022-09-21T10:55:22.489Z,56.36
2022-09-21T10:57:56.963Z,56.41
2022-09-21T11:00:45.407Z,56.29
2022-09-21T11:03:49.855Z,56.15
2022-09-21T11:06:28.987Z,56.10
2022-09-21T11:09:09.080Z,55.32
2022-09-21T11:11:53.510Z,54.84
2022-09-21T11:14:43.259Z,54.10
2022-09-21T11:17:43.447Z,53.84
2022-09-21T11:20:26.884Z,53.80
2022-09-21T11:23:07.029Z,52.90
2022-09-21T11:25:50.169Z,53.00
2022-09-21T11:28:28.532Z,52.70
2022-09-21T11:31:16.988Z,52.43
2022-09-21T11:34:16.627Z,52.65
2022-09-21T11:37:06.592Z,52.99
2022-09-21T11:39:51.220Z,52.72
2022-09-21T11:42:41.638Z,52.71
2022-09-21T11:45:34.099Z,52.83
2022-09-21T11:48:21.812Z,52.85
2022-09-21T11:51:10.522Z,52.39
2022-09-21T11:54:04.141Z,51.86
2022-09-21T11:56:47.364Z,52.04
2022-09-21T11:59:41.032Z,52.34
2022-09-21T12:02:37.923Z,52.71
2022-09-21T12:05:21.702Z,52.62
2022-09-21T12:08:22.944Z,52.56
2022-09-21T12:11:01.865Z,52.16
2022-09-21T12:13:41.455Z,52.24
2022-09-21T12:16:24.119Z,51.71
2022-09-21T12:19:07.390Z,51.69
2022-09-21T12:21:46.121Z,51.54
2022-09-21T12:24:22.279Z,50.44
2022-09-21T12:26:58.880Z,49.83
2022-09-21T12:29:38.487Z,49.70
2022-09-21T12:32:23.595Z,49.29
2022-09-21T12:35:02.462Z,49.27
2022-09-21T12:37:40.429Z,49.68
2022-09-21T12:40:21.758Z,49.15
2022-09-21T12:43:02.595Z,48.42
2022-09-21T12:45:38.935Z,48.65
2022-09-21T12:48:22.974Z,48.02
2022-09-21T12:51:05.834Z,47.73
2022-09-21T12:53:42.247Z,47.98
2022-09-21T12:56:22.891Z,48.29
2022-09-21T12:59:10.412Z,48.59
2022-09-21T13:01:53.403Z,48.83
2022-09-21T13:04:43.594Z,49.24
2022-09-21T13:07:53.357Z,49.82
2022-09-21T13:10:40.705Z,50.88
2022-09-21T13:13:24.878Z,51.86
2022-09-21T13:16:00.020Z,52.37
2022-09-21T13:18:36.804Z,52.97
2022-09-21T13:21:22.562Z,53.36
2022-09-21T13:24:02.625Z,53.83
2022-09-21T13:26:43.851Z,54.00
2022-09-21T13:29:49.011Z,54.40
2022-09-21T13:32:47.473Z,54.71
2022-09-21T13:35:53.308Z,55.60
2022-09-21T13:38:34.476Z,55.55
2022-09-21T13:41:51.695Z,54.94
2022-09-21T13:44:41.703Z,54.21
2022-09-21T13:47:15.447Z,53.81
2022-09-21T13:49:56.025Z,53.77
2022-09-21T13:52:39.766Z,53.92
2022-09-21T13:55:29.798Z,54.30
2022-09-21T13:58:06.835Z,54.36
2022-09-21T14:00:45.232Z,54.56
2022-09-21T14:03:31.294Z,55.04
2022-09-21T14:06:10.713Z,55.35
2022-09-21T14:08:53.538Z,55.64
2022-09-21T14:11:34.015Z,55.94
2022-09-21T14:14:21.332Z,56.08
2022-09-21T14:17:02.749Z,56.19
2022-09-21T14:20:30.786Z,56.52
2022-09-21T14:23:31.455Z,56.26
2022-09-21T14:26:20.875Z,56.42
2022-09-21T14:28:55.498Z,56.32
2022-09-21T14:31:34.731Z,56.10
2022-09-21T14:34:14.421Z,55.78
2022-09-21T14:36:51.677Z,55.84
2022-09-21T14:39:32.475Z,55.56
2022-09-21T14:42:19.842Z,55.36
2022-09-21T14:44:53.755Z,55.03
2022-09-21T14:47:55.925Z,55.05
2022-09-21T14:50:36.421Z,54.76
2022-09-21T14:53:57.067Z,54.89
2022-09-21T14:56:44.860Z,54.91
2022-09-21T14:59:32.622Z,54.96
2022-09-21T15:02:15.816Z,55.10
2022-09-21T15:05:06.210Z,55.38
2022-09-21T15:08:24.025Z,55.54
2022-09-21T15:11:09.104Z,55.61
2022-09-21T15:14:17.356Z,55.79
2022-09-21T15:16:51.380Z,55.86
2022-09-21T15:19:28.982Z,55.87
2022-09-21T15:22:19.065Z,56.04
2022-09-21T15:24:57.492Z,56.28
2022-09-21T15:27:33.836Z,56.34
2022-09-21T15:30:20.752Z,56.46
2022-09-21T15:32:58.114Z,56.52
2022-09-21T15:35:33.696Z,56.45
2022-09-21T15:38:20.916Z,56.47
2022-09-21T15:40:54.532Z,56.52
2022-09-21T15:43:28.170Z,56.71
2022-09-21T15:46:03.890Z,56.98
2022-09-21T15:48:42.567Z,57.10
2022-09-21T15:51:25.099Z,57.12
2022-09-21T15:54:05.406Z,57.20
2022-09-21T15:56:44.259Z,57.50
2022-09-21T15:59:21.728Z,57.63
2022-09-21T16:01:59.182Z,57.75
2022-09-21T16:04:34.242Z,57.70
2022-09-21T16:07:26.407Z,58.19
2022-09-21T16:09:59.719Z,58.74
2022-09-21T16:12:42.054Z,59.12
2022-09-21T16:15:29.519Z,59.79
2022-09-21T16:18:05.715Z,60.13
2022-09-21T16:20:46.061Z,60.33
2022-09-21T16:23:23.771Z,60.53
2022-09-21T16:26:02.731Z,60.53
2022-09-21T16:28:42.541Z,60.54
2022-09-21T16:31:39.512Z,60.83
2022-09-21T16:34:33.487Z,60.72
2022-09-21T16:37:28.531Z,60.89
2022-09-21T16:40:02.683Z,60.95
2022-09-21T16:42:36.657Z,61.02
2022-09-21T16:45:31.725Z,61.17
2022-09-21T16:48:08.319Z,60.94
2022-09-21T16:50:43.579Z,61.02
2022-09-21T16:53:19.702Z,61.06
2022-09-21T16:55:54.375Z,61.15
2022-09-21T16:58:28.015Z,61.15
2022-09-21T17:01:03.207Z,61.40
2022-09-21T17:03:36.439Z,61.53
2022-09-21T17:06:15.761Z,61.51
2022-09-21T17:08:50.652Z,61.53
2022-09-21T17:11:25.168Z,61.55
2022-09-21T17:14:01.734Z,61.63
2022-09-21T17:16:35.171Z,61.69
2022-09-21T17:19:10.542Z,61.90
2022-09-21T17:21:45.831Z,61.81
2022-09-21T17:24:45.850Z,62.13
2022-09-21T17:27:14.069Z,62.11
2022-09-21T17:29:48.258Z,62.22
2022-09-21T17:32:23.528Z,62.37
2022-09-21T17:35:00.422Z,62.47
2022-09-21T17:37:34.221Z,62.43
2022-09-21T17:40:13.797Z,62.53
2022-09-21T17:42:48.757Z,62.45
2022-09-21T17:45:28.566Z,62.55
2022-09-21T17:48:03.598Z,62.69
2022-09-21T17:50:37.897Z,62.76
2022-09-21T17:53:30.520Z,62.82
2022-09-21T17:56:20.888Z,62.88
2022-09-21T17:59:29.641Z,63.08
2022-09-21T18:02:01.881Z,63.22
2022-09-21T18:04:37.763Z,63.32
2022-09-21T18:07:12.611Z,63.36
2022-09-21T18:09:48.384Z,63.30
2022-09-21T18:12:50.770Z,63.33
2022-09-21T18:15:33.622Z,63.35
2022-09-21T18:18:18.288Z,63.52
2022-09-21T18:21:02.607Z,63.67
2022-09-21T18:23:48.603Z,63.71
2022-09-21T18:26:23.786Z,63.79
2022-09-21T18:28:58.770Z,63.78
2022-09-21T18:31:51.712Z,63.76
2022-09-21T18:34:43.891Z,63.83
2022-09-21T18:37:25.853Z,63.94
2022-09-21T18:40:10.183Z,63.97
2022-09-21T18:42:54.400Z,64.07
2022-09-21T18:45:33.464Z,64.14
2022-09-21T18:48:23.017Z,64.27
2022-09-21T18:51:07.288Z,64.40
2022-09-21T18:53:48.130Z,64.44
2022-09-21T18:56:25.755Z,64.58
2022-09-21T18:59:01.302Z,64.65
2022-09-21T19:01:36.542Z,64.53
2022-09-21T19:04:11.941Z,64.56
2022-09-21T19:06:53.107Z,64.72
2022-09-21T19:09:41.958Z,64.90
2022-09-21T19:12:26.467Z,65.10
2022-09-21T19:15:17.376Z,65.03
2022-09-21T19:18:05.940Z,65.43
2022-09-21T19:20:57.650Z,65.27
2022-09-21T19:23:45.951Z,65.40
2022-09-21T19:26:26.025Z,65.47
2022-09-21T19:29:28.316Z,65.52
2022-09-21T19:32:03.758Z,65.65
2022-09-21T19:34:40.296Z,65.81
2022-09-21T19:37:14.227Z,66.03
2022-09-21T19:39:52.260Z,65.82
2022-09-21T19:42:35.203Z,65.86
2022-09-21T19:45:23.927Z,65.96
2022-09-21T19:48:05.299Z,66.06
2022-09-21T19:50:47.160Z,66.39
2022-09-21T19:53:38.895Z,66.38
2022-09-21T19:56:34.608Z,66.48
2022-09-21T19:59:27.808Z,66.60
2022-09-21T20:02:05.091Z,66.75
2022-09-21T20:04:46.388Z,66.73
2022-09-21T20:07:29.891Z,66.69
2022-09-21T20:10:17.225Z,66.78
2022-09-21T20:12:59.840Z,66.84
2022-09-21T20:15:41.405Z,66.88
2022-09-21T20:18:24.155Z,67.03
2022-09-21T20:20:58.909Z,66.93
2022-09-21T20:23:36.601Z,67.08
2022-09-21T20:26:24.233Z,67.09
2022-09-21T20:28:58.757Z,67.16
2022-09-21T20:31:32.247Z,67.28
2022-09-21T20:34:06.342Z,67.10
2022-09-21T20:36:40.202Z,67.14
2022-09-21T20:39:15.393Z,67.12
2022-09-21T20:41:49.254Z,67.02
2022-09-21T20:44:22.855Z,67.09
2022-09-21T20:46:56.234Z,67.13
2022-09-21T20:49:29.570Z,67.22
2022-09-21T20:52:03.944Z,67.28
2022-09-21T20:54:37.983Z,67.27
2022-09-21T20:57:12.252Z,67.27
2022-09-21T20:59:46.170Z,67.29
2022-09-21T21:02:19.635Z,67.26
2022-09-21T21:04:53.194Z,67.25
2022-09-21T21:07:30.404Z,67.19
2022-09-21T21:10:05.222Z,67.28
2022-09-21T21:12:39.211Z,67.37
2022-09-21T21:15:22.817Z,67.45
2022-09-21T21:17:56.545Z,67.52
2022-09-21T21:20:31.309Z,67.52
2022-09-21T21:23:08.026Z,67.44
2022-09-21T21:25:42.234Z,67.61
2022-09-21T21:28:15.336Z,67.57
2022-09-21T21:30:53.488Z,67.64
2022-09-21T21:33:26.878Z,67.58
2022-09-21T21:36:08.461Z,67.51
2022-09-21T21:38:43.626Z,67.73
2022-09-21T21:41:17.774Z,67.66
2022-09-21T21:43:51.531Z,67.70
2022-09-21T21:46:25.228Z,67.69
2022-09-21T21:48:58.861Z,67.75
2022-09-21T21:51:32.812Z,67.63
2022-09-21T21:54:06.579Z,67.56
2022-09-21T21:56:40.242Z,67.69
2022-09-21T21:59:17.568Z,67.77
2022-09-21T22:01:51.794Z,67.87
2022-09-21T22:04:27.821Z,67.93
2022-09-21T22:07:01.633Z,68.15
2022-09-21T22:09:34.860Z,68.16
2022-09-21T22:12:08.733Z,68.21
2022-09-21T22:14:41.803Z,68.25
2022-09-21T22:17:15.847Z,68.26
2022-09-21T22:19:49.864Z,68.31
2022-09-21T22:22:23.063Z,68.44
2022-09-21T22:24:56.877Z,68.30
2022-09-21T22:27:30.343Z,68.54
2022-09-21T22:30:03.696Z,68.45
2022-09-21T22:32:37.411Z,68.48
2022-09-21T22:35:11.866Z,68.54
2022-09-21T22:37:45.126Z,68.53
2022-09-21T22:40:18.629Z,68.39
2022-09-21T22:42:52.571Z,68.40
2022-09-21T22:45:26.645Z,68.55
2022-09-21T22:47:59.915Z,68.66
2022-09-21T22:50:33.683Z,68.70
2022-09-21T22:53:10.737Z,68.60
2022-09-21T22:55:44.933Z,68.67
2022-09-21T22:58:18.727Z,68.62
2022-09-21T23:00:52.684Z,68.63
2022-09-21T23:03:26.336Z,68.61
2022-09-21T23:06:01.725Z,68.65
2022-09-21T23:08:35.931Z,68.47
2022-09-21T23:11:14.271Z,68.34
2022-09-21T23:13:48.230Z,68.64
2022-09-21T23:16:23.057Z,68.58
2022-09-21T23:18:58.172Z,68.43
2022-09-21T23:21:33.296Z,68.54
2022-09-21T23:24:07.192Z,68.57
2022-09-21T23:26:41.046Z,68.65
2022-09-21T23:29:16.705Z,68.74
2022-09-21T23:31:50.063Z,68.68
2022-09-21T23:34:23.700Z,68.70
2022-09-21T23:36:57.053Z,68.74
2022-09-21T23:39:30.733Z,68.59
2022-09-21T23:42:03.901Z,68.59
2022-09-21T23:44:37.555Z,68.70
2022-09-21T23:47:10.903Z,68.74
2022-09-21T23:49:44.233Z,68.62
2022-09-21T23:52:18.489Z,68.65
2022-09-21T23:54:51.447Z,68.71
2022-09-21T23:57:25.508Z,68.68
2022-09-21T23:59:58.898Z,68.77
